Terminal Aerodrome Forecast
Issued by NWS

Home | Current Version | Previous Version | Graphics & Text | Print | Product List | Glossary On
Versions: 1 2 3 4 5 6 7 8 9 10 11 12 13 14 15 16
000
FTUS43 KMPX 230500
TAFRNH
TAF
KRNH 230526Z 2306/2406 VRB04KT P6SM SCT100 BKN150
     FM231200 13006KT P6SM SCT050 BKN080
     FM231500 14014G20KT 6SM -RA BR SCT030 OVC050
     FM240000 13015G22KT 4SM -RA BR BKN030
      TEMPO 2402/2406 2SM -RA BR=

USA.gov is the U.S. government's official web portal to all federal, state and local government web resources and services.